Phoenix, AZ (85001)

5:08 AM MST on May 30, 2017 (GMT -0700)
Deer Valley | | Change Station

Elev 1478 ft 33.45 °N, 112.07 °W | Updated 5 seconds ago

Partly Cloudy
Partly Cloudy
74.8 °F
Feels Like 76 °F
N
0.0
Wind Variable Wind from East
Gusts 0.0 mph

Today
High -- | Low -- °F
--% Chance of Precip.
Yesterday
High -- | Low -- °F
Precip. -- in
Pressure 29.74 in
Visibility 10.0 miles
Clouds Few 15000 ft
Scattered Clouds 18000 ft
Mostly Cloudy 25000 ft
Heat Index 76 °F
Dew Point 35 °F
Humidity 23%
Rainfall 0.00 in
Snow Depth Not available.
5:19 AM 7:32 PM
Waxing Crescent, 29% visible
METAR KPHX 301151Z 10006KT 10SM FEW150 SCT180 BKN250 25/M01 A2980 RMK AO2 SLP070 T02501006 10339 20250 53014
Pressure 29.74 in
Visibility 10.0 miles
Clouds Few 15000 ft
Scattered Clouds 18000 ft
Mostly Cloudy 25000 ft
Heat Index 76 °F
Dew Point 35 °F
Humidity 23%
Rainfall 0.00 in
Snow Depth Not available.
5:19 AM 7:32 PM
Waxing Crescent, 29% visible
METAR KPHX 301151Z 10006KT 10SM FEW150 SCT180 BKN250 25/M01 A2980 RMK AO2 SLP070 T02501006 10339 20250 53014

Get Severe Weather Alerts

Thanks for signing up!

Be on the lookout for a verification email in your inbox.

You'll start receiving the daily forecast at 6 AM.

×

10-Day Weather Forecast

Almanac

Astronomy

May. 30, 2017 Rise Set
Actual Time
Civil Twilight
Nautical Twilight
Astronomical Twilight
Moon
Length of Visible Light
Length of Day
Tomorrow will be .
, % of the Moon is Illuminated

Today's Extremes

State Highs State Lows

Community

WunderPhotos

Category 6

Welcome to Category 6. This is the collective home for Weather Underground's featured writeups by Dr. Jeff Masters (right), Bob Henson (left), Chris Burt, and other regular contributors.

Nearby

Air Quality

  Air Quality AQ Index Pollutant
Not available.

Snow Depth

Station Depth Elevation

Earthquake Activity

City Distance Mag. Time & Date
Minimum magnitude displayed is 2.5.

Coastal Water Temperatures

Place Temperature

Stations

Nearby Weather Stations

Station Location Temp. Windchill Dew Point Humidity Wind Precip. Elev Updated Type
                   

Watches & Warnings

There are currently no watches in effect.